Yass Linton Hostel, New South Wales

11:42 PM AEST on July 23, 2016 (GMT +1000)
Yass | | Change Station

Elev 1804 ft 34.82 °S, 148.92 °E | Updated 28 seconds ago

Mostly Cloudy
Mostly Cloudy
39.4 °F
Feels Like 36 °F
N
4.5
Wind Variable Wind from NNW
Gusts 8.3 mph

Today
High -- | Low -- °F
--% Chance of Precip.
Yesterday
High -- | Low -- °F
Precip. -- in
Pressure 29.89 in
Visibility 6.2 miles
Clouds Mostly Cloudy 5200 ft
Windchill 36 °F
Dew Point 30 °F
Humidity 69%
Rainfall in
Snow Depth Not available.
7:05 AM 5:16 PM
Waning Gibbous, 85% visible
METAR YSCB 231330Z AUTO 34007KT 9999 // BKN052 05/M02 Q1012
Pressure 29.89 in
Visibility 6.2 miles
Clouds Mostly Cloudy 5200 ft
Windchill 36 °F
Dew Point 30 °F
Humidity 69%
Rainfall in
Snow Depth Not available.
7:05 AM 5:16 PM
Waning Gibbous, 85% visible
METAR YSCB 231330Z AUTO 34007KT 9999 // BKN052 05/M02 Q1012

10-Day Weather Forecast

Almanac

Astronomy

Jul. 23, 2016 Rise Set
Actual Time
Civil Twilight
Nautical Twilight
Astronomical Twilight
Moon
Length of Visible Light
Length of Day
Tomorrow will be .
, % of the Moon is Illuminated

Today's Extremes

Country Highs Country Lows

Community

WunderPhotos

Upload Photos

1,926,818 photos uploaded!

WunderBlog® & News

Nearby

Air Quality

  Air Quality AQ Index Pollutant
Not available.

Snow Depth

Station Depth Elevation

Earthquake Activity

City Distance Mag. Time & Date
Minimum magnitude displayed is 2.5.

Coastal Water Temperatures

Place Temperature

Stations

Nearby Weather Stations

Station Location Temp. Windchill Dew Point Humidity Wind Precip. Elev Updated Type